sensor_id;sensor_type;location;lat;lon;timestamp;pressure;altitude;pressure_sealevel;temperature;humidity
7441;BME280;29616;51.950;8.572;2023-05-16T00:01:25;99952.91;;;11.41;100.00
7441;BME280;29616;51.950;8.572;2023-05-16T00:03:57;99963.38;;;11.46;100.00
7441;BME280;29616;51.950;8.572;2023-05-16T00:06:27;99951.00;;;11.42;100.00
7441;BME280;29616;51.950;8.572;2023-05-16T00:08:58;99936.00;;;11.46;100.00
7441;BME280;29616;51.950;8.572;2023-05-16T00:11:26;99945.72;;;11.40;100.00
7441;BME280;29616;51.950;8.572;2023-05-16T00:13:57;99944.84;;;11.40;100.00
7441;BME280;29616;51.950;8.572;2023-05-16T00:16:28;99952.41;;;11.46;100.00
7441;BME280;29616;51.950;8.572;2023-05-16T00:18:58;99952.75;;;11.43;100.00
7441;BME280;29616;51.950;8.572;2023-05-16T00:21:28;99951.59;;;11.53;100.00
7441;BME280;29616;51.950;8.572;2023-05-16T00:23:59;99947.13;;;11.52;100.00
7441;BME280;29616;51.950;8.572;2023-05-16T00:26:29;99939.97;;;11.51;100.00
7441;BME280;29616;51.950;8.572;2023-05-16T00:28:59;99945.59;;;11.50;100.00
7441;BME280;29616;51.950;8.572;2023-05-16T00:31:30;99938.94;;;11.52;100.00
7441;BME280;29616;51.950;8.572;2023-05-16T00:34:00;99928.16;;;11.51;100.00
7441;BME280;29616;51.950;8.572;2023-05-16T00:36:30;99935.72;;;11.57;100.00
7441;BME280;29616;51.950;8.572;2023-05-16T00:39:00;99930.91;;;11.51;100.00
7441;BME280;29616;51.950;8.572;2023-05-16T00:41:32;99932.94;;;11.49;100.00
7441;BME280;29616;51.950;8.572;2023-05-16T00:44:00;99932.13;;;11.56;100.00
7441;BME280;29616;51.950;8.572;2023-05-16T00:46:29;99928.53;;;11.56;100.00
7441;BME280;29616;51.950;8.572;2023-05-16T00:48:57;99920.59;;;11.45;100.00
7441;BME280;29616;51.950;8.572;2023-05-16T00:51:28;99922.97;;;11.40;100.00
7441;BME280;29616;51.950;8.572;2023-05-16T00:53:59;99930.53;;;11.46;100.00
7441;BME280;29616;51.950;8.572;2023-05-16T00:56:27;99926.28;;;11.51;100.00
7441;BME280;29616;51.950;8.572;2023-05-16T00:58:58;99931.25;;;11.56;100.00
7441;BME280;29616;51.950;8.572;2023-05-16T01:01:28;99927.97;;;11.52;100.00
7441;BME280;29616;51.950;8.572;2023-05-16T01:03:57;99928.34;;;11.49;100.00
7441;BME280;29616;51.950;8.572;2023-05-16T01:06:27;99939.69;;;11.63;100.00
7441;BME280;29616;51.950;8.572;2023-05-16T01:08:57;99922.28;;;11.38;100.00
7441;BME280;29616;51.950;8.572;2023-05-16T01:11:34;99935.47;;;11.42;100.00
7441;BME280;29616;51.950;8.572;2023-05-16T01:14:16;99933.38;;;11.36;100.00
7441;BME280;29616;51.950;8.572;2023-05-16T01:16:53;99929.41;;;11.31;100.00
7441;BME280;29616;51.950;8.572;2023-05-16T01:19:54;99945.53;;;11.42;100.00
7441;BME280;29616;51.950;8.572;2023-05-16T01:22:47;99938.31;;;11.33;100.00
7441;BME280;29616;51.950;8.572;2023-05-16T01:25:33;99936.28;;;11.35;100.00
7441;BME280;29616;51.950;8.572;2023-05-16T01:28:08;99953.44;;;11.45;100.00
7441;BME280;29616;51.950;8.572;2023-05-16T01:30:39;99938.97;;;11.27;100.00
7441;BME280;29616;51.950;8.572;2023-05-16T01:33:10;99946.28;;;11.26;100.00
7441;BME280;29616;51.950;8.572;2023-05-16T01:36:00;99925.78;;;11.22;100.00
7441;BME280;29616;51.950;8.572;2023-05-16T01:38:38;99928.69;;;11.29;100.00
7441;BME280;29616;51.950;8.572;2023-05-16T01:41:12;99926.28;;;11.26;100.00
7441;BME280;29616;51.950;8.572;2023-05-16T01:43:50;99942.97;;;11.40;100.00
7441;BME280;29616;51.950;8.572;2023-05-16T01:46:25;99942.94;;;11.32;100.00
7441;BME280;29616;51.950;8.572;2023-05-16T01:49:04;99951.19;;;11.40;100.00
7441;BME280;29616;51.950;8.572;2023-05-16T01:51:36;99950.31;;;11.40;100.00
7441;BME280;29616;51.950;8.572;2023-05-16T01:54:11;99942.00;;;11.24;100.00
7441;BME280;29616;51.950;8.572;2023-05-16T01:56:46;99963.31;;;11.12;100.00
7441;BME280;29616;51.950;8.572;2023-05-16T01:59:22;99967.00;;;11.03;100.00
7441;BME280;29616;51.950;8.572;2023-05-16T02:01:56;99956.84;;;10.95;100.00
7441;BME280;29616;51.950;8.572;2023-05-16T02:04:28;99975.88;;;11.05;100.00
7441;BME280;29616;51.950;8.572;2023-05-16T02:06:58;99979.22;;;10.73;100.00
7441;BME280;29616;51.950;8.572;2023-05-16T02:09:29;99986.81;;;10.62;100.00
7441;BME280;29616;51.950;8.572;2023-05-16T02:11:58;99980.31;;;10.45;100.00
7441;BME280;29616;51.950;8.572;2023-05-16T02:14:29;99999.44;;;10.45;100.00
7441;BME280;29616;51.950;8.572;2023-05-16T02:16:59;100003.69;;;10.30;100.00
7441;BME280;29616;51.950;8.572;2023-05-16T02:19:30;100008.53;;;10.09;100.00
7441;BME280;29616;51.950;8.572;2023-05-16T02:22:00;100011.72;;;10.04;100.00
7441;BME280;29616;51.950;8.572;2023-05-16T02:24:32;100015.31;;;10.05;100.00
7441;BME280;29616;51.950;8.572;2023-05-16T02:27:03;100012.06;;;9.92;100.00
7441;BME280;29616;51.950;8.572;2023-05-16T02:29:32;100004.28;;;9.97;100.00
7441;BME280;29616;51.950;8.572;2023-05-16T02:32:04;100004.34;;;9.87;100.00
7441;BME280;29616;51.950;8.572;2023-05-16T02:34:34;100002.22;;;9.81;100.00
7441;BME280;29616;51.950;8.572;2023-05-16T02:37:04;100009.25;;;9.84;100.00
7441;BME280;29616;51.950;8.572;2023-05-16T02:39:32;99996.75;;;9.81;100.00
7441;BME280;29616;51.950;8.572;2023-05-16T02:42:01;100012.97;;;9.83;100.00
7441;BME280;29616;51.950;8.572;2023-05-16T02:44:29;100021.16;;;9.83;100.00
7441;BME280;29616;51.950;8.572;2023-05-16T02:46:59;100003.50;;;9.77;100.00
7441;BME280;29616;51.950;8.572;2023-05-16T02:49:28;99999.66;;;9.70;100.00
7441;BME280;29616;51.950;8.572;2023-05-16T02:51:57;100009.47;;;9.63;100.00
7441;BME280;29616;51.950;8.572;2023-05-16T02:54:25;100000.00;;;9.57;100.00
7441;BME280;29616;51.950;8.572;2023-05-16T02:56:55;100010.63;;;9.60;100.00
7441;BME280;29616;51.950;8.572;2023-05-16T02:59:23;100026.56;;;9.55;100.00
7441;BME280;29616;51.950;8.572;2023-05-16T03:01:53;100021.09;;;9.65;100.00
7441;BME280;29616;51.950;8.572;2023-05-16T03:04:24;100024.81;;;9.64;100.00
7441;BME280;29616;51.950;8.572;2023-05-16T03:06:53;100011.78;;;9.48;100.00
7441;BME280;29616;51.950;8.572;2023-05-16T03:09:23;100017.91;;;9.69;100.00
7441;BME280;29616;51.950;8.572;2023-05-16T03:11:53;100021.50;;;9.70;100.00
7441;BME280;29616;51.950;8.572;2023-05-16T03:14:23;100035.31;;;9.68;100.00
7441;BME280;29616;51.950;8.572;2023-05-16T03:16:51;100037.28;;;9.66;100.00
7441;BME280;29616;51.950;8.572;2023-05-16T03:19:20;100043.91;;;9.64;100.00
7441;BME280;29616;51.950;8.572;2023-05-16T03:21:49;100054.28;;;9.60;100.00
7441;BME280;29616;51.950;8.572;2023-05-16T03:24:20;100064.03;;;9.63;100.00
7441;BME280;29616;51.950;8.572;2023-05-16T03:26:49;100064.47;;;9.68;100.00
7441;BME280;29616;51.950;8.572;2023-05-16T03:29:20;100066.59;;;9.64;100.00
7441;BME280;29616;51.950;8.572;2023-05-16T03:31:50;100068.75;;;9.61;100.00
7441;BME280;29616;51.950;8.572;2023-05-16T03:34:21;100066.94;;;9.52;100.00
7441;BME280;29616;51.950;8.572;2023-05-16T03:36:53;100070.34;;;9.63;100.00
7441;BME280;29616;51.950;8.572;2023-05-16T03:39:22;100073.50;;;9.59;100.00
7441;BME280;29616;51.950;8.572;2023-05-16T03:41:50;100074.22;;;9.70;100.00
7441;BME280;29616;51.950;8.572;2023-05-16T03:44:24;100083.81;;;9.74;100.00
7441;BME280;29616;51.950;8.572;2023-05-16T03:46:53;100074.91;;;9.72;100.00
7441;BME280;29616;51.950;8.572;2023-05-16T03:49:26;100079.97;;;9.67;100.00
7441;BME280;29616;51.950;8.572;2023-05-16T03:51:57;100088.72;;;9.61;100.00
7441;BME280;29616;51.950;8.572;2023-05-16T03:54:27;100091.34;;;9.63;100.00
7441;BME280;29616;51.950;8.572;2023-05-16T03:56:55;100087.69;;;9.72;100.00
7441;BME280;29616;51.950;8.572;2023-05-16T03:59:25;100091.00;;;9.75;100.00
7441;BME280;29616;51.950;8.572;2023-05-16T04:01:55;100095.88;;;9.82;100.00
7441;BME280;29616;51.950;8.572;2023-05-16T04:04:24;100098.03;;;9.78;100.00
7441;BME280;29616;51.950;8.572;2023-05-16T04:06:54;100101.47;;;9.80;100.00
7441;BME280;29616;51.950;8.572;2023-05-16T04:09:24;100104.94;;;9.72;100.00
7441;BME280;29616;51.950;8.572;2023-05-16T04:11:54;100103.38;;;9.70;100.00
7441;BME280;29616;51.950;8.572;2023-05-16T04:14:23;100099.66;;;9.71;100.00
7441;BME280;29616;51.950;8.572;2023-05-16T04:16:54;100110.28;;;9.64;100.00
7441;BME280;29616;51.950;8.572;2023-05-16T04:19:24;100119.75;;;9.70;100.00
7441;BME280;29616;51.950;8.572;2023-05-16T04:21:55;100117.19;;;9.49;100.00
7441;BME280;29616;51.950;8.572;2023-05-16T04:24:24;100128.78;;;9.61;100.00
7441;BME280;29616;51.950;8.572;2023-05-16T04:26:57;100128.25;;;9.48;100.00
7441;BME280;29616;51.950;8.572;2023-05-16T04:29:25;100127.41;;;9.47;100.00
7441;BME280;29616;51.950;8.572;2023-05-16T04:31:57;100119.78;;;9.60;100.00
7441;BME280;29616;51.950;8.572;2023-05-16T04:34:26;100128.38;;;9.56;100.00
7441;BME280;29616;51.950;8.572;2023-05-16T04:36:56;100138.56;;;9.63;100.00
7441;BME280;29616;51.950;8.572;2023-05-16T04:39:28;100133.69;;;9.57;100.00
7441;BME280;29616;51.950;8.572;2023-05-16T04:41:57;100149.03;;;9.58;100.00
7441;BME280;29616;51.950;8.572;2023-05-16T04:44:31;100142.56;;;9.79;100.00
7441;BME280;29616;51.950;8.572;2023-05-16T04:47:01;100149.88;;;9.78;100.00
7441;BME280;29616;51.950;8.572;2023-05-16T04:49:30;100154.03;;;9.82;100.00
7441;BME280;29616;51.950;8.572;2023-05-16T04:51:59;100162.81;;;9.86;100.00
7441;BME280;29616;51.950;8.572;2023-05-16T04:54:29;100165.13;;;9.71;100.00
7441;BME280;29616;51.950;8.572;2023-05-16T04:56:59;100161.38;;;9.72;100.00
7441;BME280;29616;51.950;8.572;2023-05-16T04:59:28;100167.72;;;9.72;100.00
7441;BME280;29616;51.950;8.572;2023-05-16T05:01:58;100164.97;;;9.72;100.00
7441;BME280;29616;51.950;8.572;2023-05-16T05:04:28;100169.09;;;9.96;100.00
7441;BME280;29616;51.950;8.572;2023-05-16T05:06:57;100165.66;;;9.94;100.00
7441;BME280;29616;51.950;8.572;2023-05-16T05:09:26;100182.31;;;9.91;100.00
7441;BME280;29616;51.950;8.572;2023-05-16T05:11:55;100180.31;;;9.93;100.00
7441;BME280;29616;51.950;8.572;2023-05-16T05:14:25;100171.41;;;9.91;100.00
7441;BME280;29616;51.950;8.572;2023-05-16T05:16:54;100187.69;;;9.73;100.00
7441;BME280;29616;51.950;8.572;2023-05-16T05:19:24;100188.25;;;9.67;100.00
7441;BME280;29616;51.950;8.572;2023-05-16T05:21:53;100187.09;;;9.79;100.00
7441;BME280;29616;51.950;8.572;2023-05-16T05:24:23;100188.41;;;9.56;100.00
7441;BME280;29616;51.950;8.572;2023-05-16T05:26:56;100180.94;;;9.39;100.00
7441;BME280;29616;51.950;8.572;2023-05-16T05:29:24;100192.56;;;9.50;100.00
7441;BME280;29616;51.950;8.572;2023-05-16T05:31:54;100191.84;;;9.48;100.00
7441;BME280;29616;51.950;8.572;2023-05-16T05:34:22;100205.50;;;9.39;100.00
7441;BME280;29616;51.950;8.572;2023-05-16T05:36:52;100199.59;;;9.43;100.00
7441;BME280;29616;51.950;8.572;2023-05-16T05:39:21;100210.66;;;9.61;100.00
7441;BME280;29616;51.950;8.572;2023-05-16T05:41:53;100205.78;;;9.64;100.00
7441;BME280;29616;51.950;8.572;2023-05-16T05:44:24;100202.91;;;9.75;100.00
7441;BME280;29616;51.950;8.572;2023-05-16T05:46:53;100209.50;;;9.83;100.00
7441;BME280;29616;51.950;8.572;2023-05-16T05:49:25;100226.38;;;10.34;100.00
7441;BME280;29616;51.950;8.572;2023-05-16T05:51:53;100219.81;;;10.17;100.00
7441;BME280;29616;51.950;8.572;2023-05-16T05:54:25;100216.75;;;10.40;100.00
7441;BME280;29616;51.950;8.572;2023-05-16T05:56:55;100228.47;;;10.13;100.00
7441;BME280;29616;51.950;8.572;2023-05-16T05:59:25;100189.63;;;10.19;100.00
7441;BME280;29616;51.950;8.572;2023-05-16T06:01:54;100227.84;;;10.65;100.00
7441;BME280;29616;51.950;8.572;2023-05-16T06:04:24;100233.13;;;10.76;100.00
7441;BME280;29616;51.950;8.572;2023-05-16T06:06:52;100228.63;;;10.85;100.00
7441;BME280;29616;51.950;8.572;2023-05-16T06:09:23;100233.88;;;10.69;100.00
7441;BME280;29616;51.950;8.572;2023-05-16T06:11:51;100243.44;;;10.55;100.00
7441;BME280;29616;51.950;8.572;2023-05-16T06:14:22;100238.47;;;10.68;100.00
7441;BME280;29616;51.950;8.572;2023-05-16T06:16:52;100230.59;;;11.20;100.00
7441;BME280;29616;51.950;8.572;2023-05-16T06:19:21;100234.47;;;11.80;100.00
7441;BME280;29616;51.950;8.572;2023-05-16T06:21:49;100252.84;;;12.82;100.00
7441;BME280;29616;51.950;8.572;2023-05-16T06:24:19;100247.38;;;12.56;100.00
7441;BME280;29616;51.950;8.572;2023-05-16T06:26:50;100250.22;;;13.06;100.00
7441;BME280;29616;51.950;8.572;2023-05-16T06:29:18;100245.47;;;13.90;100.00
7441;BME280;29616;51.950;8.572;2023-05-16T06:31:49;100263.84;;;14.06;100.00
7441;BME280;29616;51.950;8.572;2023-05-16T06:34:18;100250.78;;;14.65;100.00
7441;BME280;29616;51.950;8.572;2023-05-16T06:36:56;100268.47;;;13.81;100.00
7441;BME280;29616;51.950;8.572;2023-05-16T06:39:26;100258.69;;;13.95;100.00
7441;BME280;29616;51.950;8.572;2023-05-16T06:41:55;100246.69;;;14.04;100.00
7441;BME280;29616;51.950;8.572;2023-05-16T06:44:24;100266.97;;;12.95;100.00
7441;BME280;29616;51.950;8.572;2023-05-16T06:46:56;100279.00;;;14.26;100.00
7441;BME280;29616;51.950;8.572;2023-05-16T06:49:27;100273.47;;;14.67;100.00
7441;BME280;29616;51.950;8.572;2023-05-16T06:51:56;100274.84;;;14.71;100.00
7441;BME280;29616;51.950;8.572;2023-05-16T06:54:27;100275.25;;;14.98;100.00
7441;BME280;29616;51.950;8.572;2023-05-16T06:56:55;100289.78;;;14.84;100.00
7441;BME280;29616;51.950;8.572;2023-05-16T06:59:26;100272.78;;;14.56;100.00
7441;BME280;29616;51.950;8.572;2023-05-16T07:01:54;100275.25;;;15.45;100.00
7441;BME280;29616;51.950;8.572;2023-05-16T07:04:27;100280.03;;;15.59;100.00
7441;BME280;29616;51.950;8.572;2023-05-16T07:06:57;100278.59;;;16.17;100.00
7441;BME280;29616;51.950;8.572;2023-05-16T07:09:26;100277.63;;;16.10;100.00
7441;BME280;29616;51.950;8.572;2023-05-16T07:11:56;100272.72;;;15.74;100.00
7441;BME280;29616;51.950;8.572;2023-05-16T07:14:26;100279.81;;;15.30;100.00
7441;BME280;29616;51.950;8.572;2023-05-16T07:16:56;100290.44;;;15.33;100.00
7441;BME280;29616;51.950;8.572;2023-05-16T07:19:28;100274.78;;;16.41;100.00
7441;BME280;29616;51.950;8.572;2023-05-16T07:21:57;100266.22;;;17.17;100.00
7441;BME280;29616;51.950;8.572;2023-05-16T07:24:25;100286.88;;;16.17;100.00
7441;BME280;29616;51.950;8.572;2023-05-16T07:26:55;100294.78;;;14.65;100.00
7441;BME280;29616;51.950;8.572;2023-05-16T07:29:25;100290.78;;;13.62;100.00
7441;BME280;29616;51.950;8.572;2023-05-16T07:31:56;100292.16;;;13.16;100.00
7441;BME280;29616;51.950;8.572;2023-05-16T07:34:25;100292.38;;;12.46;100.00
7441;BME280;29616;51.950;8.572;2023-05-16T07:36:56;100291.53;;;13.05;100.00
7441;BME280;29616;51.950;8.572;2023-05-16T07:39:26;100294.19;;;13.64;100.00
7441;BME280;29616;51.950;8.572;2023-05-16T07:41:55;100295.78;;;13.83;100.00
7441;BME280;29616;51.950;8.572;2023-05-16T07:44:25;100289.84;;;15.62;100.00
7441;BME280;29616;51.950;8.572;2023-05-16T07:46:56;100290.72;;;15.85;100.00
7441;BME280;29616;51.950;8.572;2023-05-16T07:49:26;100295.50;;;15.22;100.00
7441;BME280;29616;51.950;8.572;2023-05-16T07:51:57;100291.69;;;14.03;100.00
7441;BME280;29616;51.950;8.572;2023-05-16T07:54:26;100292.38;;;13.97;100.00
7441;BME280;29616;51.950;8.572;2023-05-16T07:56:55;100292.47;;;13.13;100.00
7441;BME280;29616;51.950;8.572;2023-05-16T07:59:25;100284.34;;;12.78;100.00
7441;BME280;29616;51.950;8.572;2023-05-16T08:01:54;100301.28;;;13.25;100.00
7441;BME280;29616;51.950;8.572;2023-05-16T08:04:24;100301.06;;;13.18;100.00
7441;BME280;29616;51.950;8.572;2023-05-16T08:06:54;100295.31;;;14.28;100.00
7441;BME280;29616;51.950;8.572;2023-05-16T08:09:25;100286.22;;;15.14;100.00
7441;BME280;29616;51.950;8.572;2023-05-16T08:11:55;100291.09;;;16.05;100.00
7441;BME280;29616;51.950;8.572;2023-05-16T08:14:24;100294.19;;;16.10;100.00
7441;BME280;29616;51.950;8.572;2023-05-16T08:16:53;100303.75;;;16.96;100.00
7441;BME280;29616;51.950;8.572;2023-05-16T08:19:21;100294.31;;;17.49;97.95
7441;BME280;29616;51.950;8.572;2023-05-16T08:21:52;100287.59;;;16.56;98.05
7441;BME280;29616;51.950;8.572;2023-05-16T08:24:21;100300.47;;;16.41;100.00
7441;BME280;29616;51.950;8.572;2023-05-16T08:26:53;100304.50;;;17.49;100.00
7441;BME280;29616;51.950;8.572;2023-05-16T08:29:23;100297.84;;;17.58;95.30
7441;BME280;29616;51.950;8.572;2023-05-16T08:31:53;100315.63;;;17.85;94.22
7441;BME280;29616;51.950;8.572;2023-05-16T08:34:23;100320.91;;;17.65;89.00
7441;BME280;29616;51.950;8.572;2023-05-16T08:36:53;100297.19;;;17.56;84.98
7441;BME280;29616;51.950;8.572;2023-05-16T08:39:23;100307.16;;;17.72;86.26
7441;BME280;29616;51.950;8.572;2023-05-16T08:41:56;100317.13;;;18.65;82.05
7441;BME280;29616;51.950;8.572;2023-05-16T08:44:28;100310.81;;;17.58;79.60
7441;BME280;29616;51.950;8.572;2023-05-16T08:47:07;100307.50;;;16.21;86.54
7441;BME280;29616;51.950;8.572;2023-05-16T08:49:40;100316.88;;;15.89;85.14
7441;BME280;29616;51.950;8.572;2023-05-16T08:52:13;100303.69;;;17.84;82.40
7441;BME280;29616;51.950;8.572;2023-05-16T08:54:47;100297.06;;;16.76;86.35
7441;BME280;29616;51.950;8.572;2023-05-16T08:57:37;100308.75;;;16.18;91.72
7441;BME280;29616;51.950;8.572;2023-05-16T09:00:07;100303.94;;;18.04;81.39
7441;BME280;29616;51.950;8.572;2023-05-16T09:02:41;100295.72;;;19.08;72.42
7441;BME280;29616;51.950;8.572;2023-05-16T09:05:12;100292.78;;;19.16;67.69
7441;BME280;29616;51.950;8.572;2023-05-16T09:07:42;100317.16;;;17.43;81.70
7441;BME280;29616;51.950;8.572;2023-05-16T09:10:12;100298.97;;;16.90;84.15
7441;BME280;29616;51.950;8.572;2023-05-16T09:12:44;100304.63;;;17.55;83.37
7441;BME280;29616;51.950;8.572;2023-05-16T09:15:18;100304.31;;;17.65;76.11
7441;BME280;29616;51.950;8.572;2023-05-16T09:17:47;100302.50;;;16.99;81.30
7441;BME280;29616;51.950;8.572;2023-05-16T09:20:18;100295.38;;;15.85;95.52
7441;BME280;29616;51.950;8.572;2023-05-16T09:22:51;100304.81;;;16.13;96.39
7441;BME280;29616;51.950;8.572;2023-05-16T09:25:23;100302.84;;;15.37;100.00
7441;BME280;29616;51.950;8.572;2023-05-16T09:28:00;100307.56;;;15.12;100.00
7441;BME280;29616;51.950;8.572;2023-05-16T09:30:31;100309.69;;;15.41;100.00
7441;BME280;29616;51.950;8.572;2023-05-16T09:33:05;100299.38;;;15.43;100.00
7441;BME280;29616;51.950;8.572;2023-05-16T09:35:34;100305.78;;;15.74;100.00
7441;BME280;29616;51.950;8.572;2023-05-16T09:38:13;100308.16;;;17.64;90.49
7441;BME280;29616;51.950;8.572;2023-05-16T09:40:44;100302.31;;;18.31;78.04
7441;BME280;29616;51.950;8.572;2023-05-16T09:43:19;100297.69;;;18.16;81.60
7441;BME280;29616;51.950;8.572;2023-05-16T09:45:49;100305.84;;;16.94;86.77
7441;BME280;29616;51.950;8.572;2023-05-16T09:48:19;100320.22;;;15.76;94.47
7441;BME280;29616;51.950;8.572;2023-05-16T09:50:50;100305.91;;;15.42;96.96
7441;BME280;29616;51.950;8.572;2023-05-16T09:53:25;100296.78;;;15.50;95.98
7441;BME280;29616;51.950;8.572;2023-05-16T09:56:01;100297.47;;;17.17;89.97
7441;BME280;29616;51.950;8.572;2023-05-16T09:58:33;100293.56;;;17.91;82.82
7441;BME280;29616;51.950;8.572;2023-05-16T10:01:04;100301.38;;;17.67;78.20
7441;BME280;29616;51.950;8.572;2023-05-16T10:03:36;100315.25;;;16.71;81.59
7441;BME280;29616;51.950;8.572;2023-05-16T10:06:08;100312.97;;;16.29;87.09
7441;BME280;29616;51.950;8.572;2023-05-16T10:08:42;100316.16;;;16.41;91.48
7441;BME280;29616;51.950;8.572;2023-05-16T10:11:13;100322.13;;;17.77;82.16
7441;BME280;29616;51.950;8.572;2023-05-16T10:13:45;100315.00;;;18.46;88.14
7441;BME280;29616;51.950;8.572;2023-05-16T10:16:21;100318.78;;;18.88;82.86
7441;BME280;29616;51.950;8.572;2023-05-16T10:18:52;100304.00;;;18.32;77.64
7441;BME280;29616;51.950;8.572;2023-05-16T10:21:23;100296.78;;;19.07;74.58
7441;BME280;29616;51.950;8.572;2023-05-16T10:23:58;100308.31;;;17.77;71.55
7441;BME280;29616;51.950;8.572;2023-05-16T10:26:32;100304.22;;;18.51;71.22
7441;BME280;29616;51.950;8.572;2023-05-16T10:29:05;100293.69;;;19.58;72.81
7441;BME280;29616;51.950;8.572;2023-05-16T10:31:34;100297.81;;;20.35;64.99
7441;BME280;29616;51.950;8.572;2023-05-16T10:34:05;100303.22;;;19.89;66.12
7441;BME280;29616;51.950;8.572;2023-05-16T10:36:35;100295.19;;;18.22;68.30
7441;BME280;29616;51.950;8.572;2023-05-16T10:39:06;100303.44;;;19.13;67.69
7441;BME280;29616;51.950;8.572;2023-05-16T10:41:35;100298.72;;;18.37;65.71
7441;BME280;29616;51.950;8.572;2023-05-16T10:44:13;100298.94;;;17.78;69.18
7441;BME280;29616;51.950;8.572;2023-05-16T10:46:46;100302.31;;;17.15;73.22
7441;BME280;29616;51.950;8.572;2023-05-16T10:49:25;100281.53;;;16.38;80.78
7441;BME280;29616;51.950;8.572;2023-05-16T10:52:07;100278.47;;;18.51;74.73
7441;BME280;29616;51.950;8.572;2023-05-16T10:54:37;100296.13;;;19.74;71.10
7441;BME280;29616;51.950;8.572;2023-05-16T10:57:09;100283.44;;;18.90;66.56
7441;BME280;29616;51.950;8.572;2023-05-16T10:59:44;100275.50;;;19.14;61.24
7441;BME280;29616;51.950;8.572;2023-05-16T11:02:25;100291.94;;;20.17;61.21
7441;BME280;29616;51.950;8.572;2023-05-16T11:04:57;100304.47;;;19.05;56.43
7441;BME280;29616;51.950;8.572;2023-05-16T11:07:32;100319.28;;;17.41;60.59
7441;BME280;29616;51.950;8.572;2023-05-16T11:10:07;100298.97;;;16.76;63.41
7441;BME280;29616;51.950;8.572;2023-05-16T11:12:43;100303.34;;;16.85;66.23
7441;BME280;29616;51.950;8.572;2023-05-16T11:15:23;100306.00;;;16.78;71.79
7441;BME280;29616;51.950;8.572;2023-05-16T11:18:04;100314.53;;;16.54;71.35
7441;BME280;29616;51.950;8.572;2023-05-16T11:20:38;100303.38;;;17.00;69.63
7441;BME280;29616;51.950;8.572;2023-05-16T11:23:24;100307.56;;;18.47;65.83
7441;BME280;29616;51.950;8.572;2023-05-16T11:25:56;100293.44;;;18.63;64.40
7441;BME280;29616;51.950;8.572;2023-05-16T11:28:27;100308.00;;;18.71;67.32
7441;BME280;29616;51.950;8.572;2023-05-16T11:30:58;100294.19;;;18.50;65.59
7441;BME280;29616;51.950;8.572;2023-05-16T11:33:29;100305.53;;;19.39;63.47
7441;BME280;29616;51.950;8.572;2023-05-16T11:36:05;100311.31;;;19.44;58.84
7441;BME280;29616;51.950;8.572;2023-05-16T11:38:43;100298.91;;;19.05;64.18
7441;BME280;29616;51.950;8.572;2023-05-16T11:41:13;100300.66;;;18.36;62.03
7441;BME280;29616;51.950;8.572;2023-05-16T11:43:44;100270.78;;;17.39;66.01
7441;BME280;29616;51.950;8.572;2023-05-16T11:46:15;100300.97;;;16.45;73.52
7441;BME280;29616;51.950;8.572;2023-05-16T11:48:51;100316.09;;;16.49;77.84
7441;BME280;29616;51.950;8.572;2023-05-16T11:51:22;100329.22;;;16.01;88.46
7441;BME280;29616;51.950;8.572;2023-05-16T11:53:51;100329.22;;;16.01;85.35
7441;BME280;29616;51.950;8.572;2023-05-16T11:56:20;100320.50;;;16.35;87.80
7441;BME280;29616;51.950;8.572;2023-05-16T11:58:51;100326.53;;;16.38;94.81
7441;BME280;29616;51.950;8.572;2023-05-16T12:01:22;100321.91;;;16.76;98.89
7441;BME280;29616;51.950;8.572;2023-05-16T12:03:54;100318.19;;;16.47;100.00
7441;BME280;29616;51.950;8.572;2023-05-16T12:06:24;100304.50;;;16.08;96.56
7441;BME280;29616;51.950;8.572;2023-05-16T12:08:54;100321.91;;;15.86;100.00
7441;BME280;29616;51.950;8.572;2023-05-16T12:11:25;100322.53;;;15.96;99.60
7441;BME280;29616;51.950;8.572;2023-05-16T12:13:55;100311.72;;;15.86;100.00
7441;BME280;29616;51.950;8.572;2023-05-16T12:16:28;100306.50;;;17.11;96.36
7441;BME280;29616;51.950;8.572;2023-05-16T12:18:58;100314.63;;;17.92;83.98
7441;BME280;29616;51.950;8.572;2023-05-16T12:21:31;100308.09;;;18.14;79.86
7441;BME280;29616;51.950;8.572;2023-05-16T12:24:00;100319.38;;;17.63;88.80
7441;BME280;29616;51.950;8.572;2023-05-16T12:26:31;100306.25;;;17.21;79.20
7441;BME280;29616;51.950;8.572;2023-05-16T12:29:02;100311.63;;;16.85;86.26
7441;BME280;29616;51.950;8.572;2023-05-16T12:31:37;100311.56;;;17.37;75.30
7441;BME280;29616;51.950;8.572;2023-05-16T12:34:16;100305.41;;;18.91;71.73
7441;BME280;29616;51.950;8.572;2023-05-16T12:36:50;100306.88;;;20.03;62.71
7441;BME280;29616;51.950;8.572;2023-05-16T12:39:21;100302.34;;;19.89;61.53
7441;BME280;29616;51.950;8.572;2023-05-16T12:41:51;100302.59;;;20.01;61.23
7441;BME280;29616;51.950;8.572;2023-05-16T12:44:21;100309.22;;;19.18;57.35
7441;BME280;29616;51.950;8.572;2023-05-16T12:46:53;100303.63;;;19.11;58.16
7441;BME280;29616;51.950;8.572;2023-05-16T12:49:26;100319.63;;;17.82;59.66
7441;BME280;29616;51.950;8.572;2023-05-16T12:51:55;100283.28;;;17.35;62.87
7441;BME280;29616;51.950;8.572;2023-05-16T12:54:32;100308.69;;;17.45;60.94
7441;BME280;29616;51.950;8.572;2023-05-16T12:57:02;100315.41;;;18.43;62.60
7441;BME280;29616;51.950;8.572;2023-05-16T12:59:34;100295.88;;;19.00;58.08
7441;BME280;29616;51.950;8.572;2023-05-16T13:02:06;100316.78;;;19.71;56.17
7441;BME280;29616;51.950;8.572;2023-05-16T13:04:35;100326.84;;;18.55;54.70
7441;BME280;29616;51.950;8.572;2023-05-16T13:07:06;100325.03;;;19.24;55.71
7441;BME280;29616;51.950;8.572;2023-05-16T13:09:35;100321.00;;;19.61;56.51
7441;BME280;29616;51.950;8.572;2023-05-16T13:12:05;100317.03;;;18.80;55.98
7441;BME280;29616;51.950;8.572;2023-05-16T13:14:34;100327.44;;;17.79;56.10
7441;BME280;29616;51.950;8.572;2023-05-16T13:17:06;100309.84;;;17.36;57.20
7441;BME280;29616;51.950;8.572;2023-05-16T13:19:36;100330.97;;;17.00;59.49